Time;durP1;ratioP1;P1;durP2;ratioP2;P2;SDS_P1;SDS_P2;PMS_P1;PMS_P2;Temp;Humidity;BMP_temperature;BMP_pressure;BME280_temperature;BME280_humidity;BME280_pressure;Samples;Min_cycle;Max_cycle;Signal;HPM_P1;HPM_P2
2024/02/06 00:02:07;;;;;;;2.20;1.55;;;;;;;;;;5101048;28;20206;-78
2024/02/06 00:04:34;;;;;;;1.83;1.55;;;;;;;;;;5101055;28;20185;-79
2024/02/06 00:07:02;;;;;;;1.45;1.30;;;;;;;;;;5101383;28;20224;-79
2024/02/06 00:09:29;;;;;;;3.00;1.42;;;;;;;;;;5100580;28;20207;-79
2024/02/06 00:11:58;;;;;;;2.03;1.30;;;;;;;;;;5100946;28;20228;-77
2024/02/06 00:14:26;;;;;;;2.20;1.45;;;;;;;;;;5100455;28;20208;-79
2024/02/06 00:16:53;;;;;;;2.20;1.20;;;;;;;;;;5100552;28;20244;-77
2024/02/06 00:19:21;;;;;;;1.30;1.20;;;;;;;;;;5099166;28;20211;-78
2024/02/06 00:21:48;;;;;;;1.55;1.25;;;;;;;;;;5098360;28;20207;-78
2024/02/06 00:24:15;;;;;;;2.50;1.23;;;;;;;;;;5097713;28;20196;-78
2024/02/06 00:26:43;;;;;;;1.17;1.10;;;;;;;;;;5097801;28;20258;-78
2024/02/06 00:29:12;;;;;;;1.75;1.67;;;;;;;;;;5097676;28;20287;-78
2024/02/06 00:31:39;;;;;;;1.40;1.10;;;;;;;;;;5097523;28;20204;-78
2024/02/06 00:34:06;;;;;;;0.90;0.90;;;;;;;;;;5097308;28;20232;-78
2024/02/06 00:36:34;;;;;;;1.38;1.08;;;;;;;;;;5097809;28;20276;-77
2024/02/06 00:39:01;;;;;;;0.82;0.80;;;;;;;;;;5078585;28;20205;-77
2024/02/06 00:41:29;;;;;;;1.25;0.98;;;;;;;;;;5077963;28;20204;-78
2024/02/06 00:43:56;;;;;;;1.20;1.10;;;;;;;;;;5096183;28;20214;-78
2024/02/06 00:46:25;;;;;;;1.08;1.08;;;;;;;;;;5097094;28;20226;-77
2024/02/06 00:48:54;;;;;;;1.65;1.15;;;;;;;;;;5098312;28;20203;-78
2024/02/06 00:51:22;;;;;;;1.13;1.02;;;;;;;;;;5097804;28;20250;-77
2024/02/06 00:53:49;;;;;;;1.33;1.00;;;;;;;;;;5097997;28;20200;-78
2024/02/06 00:56:16;;;;;;;1.00;1.00;;;;;;;;;;5096568;28;20291;-78
2024/02/06 00:58:44;;;;;;;0.88;0.88;;;;;;;;;;5096321;28;20196;-78
2024/02/06 01:01:11;;;;;;;1.20;1.10;;;;;;;;;;5096661;28;20632;-79
2024/02/06 01:03:41;;;;;;;1.02;0.98;;;;;;;;;;5097353;28;20287;-78
2024/02/06 01:06:10;;;;;;;0.90;0.90;;;;;;;;;;5097256;28;20594;-77
2024/02/06 01:08:37;;;;;;;0.95;0.95;;;;;;;;;;5097837;28;20536;-78
2024/02/06 01:11:05;;;;;;;0.65;0.65;;;;;;;;;;5097356;28;20200;-78
2024/02/06 01:13:33;;;;;;;1.10;0.95;;;;;;;;;;5096700;28;20283;-78
2024/02/06 01:16:00;;;;;;;1.02;1.02;;;;;;;;;;5097359;28;20203;-78
2024/02/06 01:18:28;;;;;;;0.90;0.90;;;;;;;;;;5096578;28;20239;-76
2024/02/06 01:20:56;;;;;;;1.40;1.30;;;;;;;;;;5096520;28;20204;-79
2024/02/06 01:23:24;;;;;;;1.10;1.10;;;;;;;;;;5096500;28;20211;-76
2024/02/06 01:25:51;;;;;;;1.60;0.95;;;;;;;;;;5096470;28;20311;-78
2024/02/06 01:28:19;;;;;;;0.95;0.95;;;;;;;;;;5096636;28;20220;-77
2024/02/06 01:30:46;;;;;;;0.95;0.77;;;;;;;;;;5095978;28;20206;-78
2024/02/06 01:33:14;;;;;;;1.00;1.00;;;;;;;;;;5096301;28;20204;-78
2024/02/06 01:35:41;;;;;;;0.88;0.77;;;;;;;;;;5096668;28;20196;-78
2024/02/06 01:38:12;;;;;;;0.90;0.90;;;;;;;;;;5095031;28;20226;-78
2024/02/06 01:40:42;;;;;;;0.95;0.95;;;;;;;;;;5096588;28;20235;-78
2024/02/06 01:43:10;;;;;;;1.52;0.70;;;;;;;;;;5075595;28;20197;-77
2024/02/06 01:45:38;;;;;;;1.52;1.13;;;;;;;;;;5075969;28;20596;-78
2024/02/06 01:48:07;;;;;;;1.30;1.10;;;;;;;;;;5079143;28;20223;-77
2024/02/06 01:50:35;;;;;;;2.03;0.95;;;;;;;;;;5095917;28;20750;-78
2024/02/06 01:53:03;;;;;;;1.08;1.05;;;;;;;;;;5095882;28;20210;-77
2024/02/06 01:55:32;;;;;;;1.55;1.23;;;;;;;;;;5095936;28;20305;-77
2024/02/06 01:57:59;;;;;;;0.88;0.80;;;;;;;;;;5095581;28;20579;-79
2024/02/06 02:00:27;;;;;;;1.52;0.90;;;;;;;;;;5095913;28;20257;-79
2024/02/06 02:02:55;;;;;;;0.88;0.88;;;;;;;;;;5095746;28;20214;-77
2024/02/06 02:05:22;;;;;;;1.35;0.98;;;;;;;;;;5096074;28;20722;-78
2024/02/06 02:07:50;;;;;;;1.10;1.00;;;;;;;;;;5096954;28;20227;-78
2024/02/06 02:10:17;;;;;;;0.90;0.90;;;;;;;;;;5096253;28;20212;-78
2024/02/06 02:12:46;;;;;;;0.80;0.80;;;;;;;;;;5096058;28;20200;-78
2024/02/06 02:15:14;;;;;;;0.98;0.98;;;;;;;;;;5095985;28;20643;-78
2024/02/06 02:17:42;;;;;;;1.20;1.20;;;;;;;;;;5095819;28;20231;-78
2024/02/06 02:20:11;;;;;;;1.55;1.40;;;;;;;;;;5096117;28;20203;-78
2024/02/06 02:22:40;;;;;;;1.70;1.02;;;;;;;;;;5096041;28;20656;-77
2024/02/06 02:25:08;;;;;;;0.88;0.85;;;;;;;;;;5095695;28;20210;-78
2024/02/06 02:27:36;;;;;;;1.83;1.70;;;;;;;;;;5095413;28;20652;-79
2024/02/06 02:30:05;;;;;;;1.30;1.20;;;;;;;;;;5095792;28;20294;-78
2024/02/06 02:32:32;;;;;;;1.85;1.40;;;;;;;;;;5095791;28;20257;-79
2024/02/06 02:35:00;;;;;;;1.30;1.20;;;;;;;;;;5095407;28;20204;-78
2024/02/06 02:37:27;;;;;;;1.95;1.30;;;;;;;;;;5095629;28;20604;-78
2024/02/06 02:39:56;;;;;;;2.08;1.65;;;;;;;;;;5096029;28;20254;-78
2024/02/06 02:42:23;;;;;;;1.67;1.58;;;;;;;;;;5095446;28;20685;-77
2024/02/06 02:44:51;;;;;;;1.25;1.17;;;;;;;;;;5095217;28;20208;-77
2024/02/06 02:47:18;;;;;;;2.50;1.20;;;;;;;;;;5095240;28;20234;-78
2024/02/06 02:49:46;;;;;;;2.47;1.52;;;;;;;;;;5095245;28;20299;-79
2024/02/06 02:52:13;;;;;;;2.00;1.10;;;;;;;;;;5095826;28;20291;-78
2024/02/06 02:54:41;;;;;;;1.60;1.40;;;;;;;;;;5095716;28;20573;-79
2024/02/06 02:57:10;;;;;;;2.35;1.17;;;;;;;;;;5094857;28;20319;-78
2024/02/06 02:59:38;;;;;;;1.92;1.75;;;;;;;;;;5094638;28;20212;-78
2024/02/06 03:02:05;;;;;;;1.30;1.20;;;;;;;;;;5095055;28;20201;-78
2024/02/06 03:04:32;;;;;;;1.50;1.27;;;;;;;;;;5095121;28;20291;-76
2024/02/06 03:07:00;;;;;;;3.42;1.45;;;;;;;;;;5095278;28;20671;-78
2024/02/06 03:09:28;;;;;;;1.88;1.30;;;;;;;;;;5094963;28;20216;-77
2024/02/06 03:11:55;;;;;;;1.48;1.20;;;;;;;;;;5094663;28;20211;-78
2024/02/06 03:14:24;;;;;;;1.90;1.25;;;;;;;;;;5095084;28;20207;-78
2024/02/06 03:16:51;;;;;;;5.20;1.77;;;;;;;;;;5095177;28;20231;-78
2024/02/06 03:19:19;;;;;;;1.70;1.30;;;;;;;;;;5095083;28;20211;-79
2024/02/06 03:21:46;;;;;;;3.03;1.25;;;;;;;;;;5094503;28;20204;-78
2024/02/06 03:24:14;;;;;;;2.55;1.40;;;;;;;;;;5095174;28;20204;-77
2024/02/06 03:26:42;;;;;;;2.08;1.88;;;;;;;;;;5095414;28;20698;-78
2024/02/06 03:29:09;;;;;;;1.52;1.38;;;;;;;;;;5095888;28;20590;-78
2024/02/06 03:31:38;;;;;;;5.57;2.80;;;;;;;;;;5099213;28;20211;-79
2024/02/06 03:34:05;;;;;;;4.47;1.40;;;;;;;;;;5099141;28;20226;-79
2024/02/06 03:36:33;;;;;;;1.73;1.10;;;;;;;;;;5099617;28;20267;-79
2024/02/06 03:39:00;;;;;;;2.10;1.90;;;;;;;;;;5099142;28;20223;-78
2024/02/06 03:41:28;;;;;;;3.20;2.20;;;;;;;;;;5098683;28;20204;-77
2024/02/06 03:43:55;;;;;;;3.30;1.80;;;;;;;;;;5098839;28;20299;-78
2024/02/06 03:46:23;;;;;;;1.70;1.50;;;;;;;;;;5098846;28;20204;-78
2024/02/06 03:48:51;;;;;;;3.08;1.70;;;;;;;;;;5098245;28;20319;-77
2024/02/06 03:51:19;;;;;;;1.50;1.30;;;;;;;;;;5098816;28;20655;-79
2024/02/06 03:53:46;;;;;;;1.60;1.48;;;;;;;;;;5097726;28;20296;-78
2024/02/06 03:56:17;;;;;;;1.70;1.60;;;;;;;;;;5098982;28;20294;-78
2024/02/06 03:58:45;;;;;;;2.03;1.48;;;;;;;;;;5099033;28;20665;-76
2024/02/06 04:01:12;;;;;;;2.15;1.55;;;;;;;;;;5098559;28;20656;-78
2024/02/06 04:03:40;;;;;;;4.75;1.85;;;;;;;;;;5098596;28;20294;-79
2024/02/06 04:06:09;;;;;;;7.13;1.83;;;;;;;;;;5098919;28;20204;-79
2024/02/06 04:08:36;;;;;;;3.50;1.60;;;;;;;;;;5096710;28;20228;-78
2024/02/06 04:11:04;;;;;;;6.22;2.35;;;;;;;;;;5098600;28;20200;-78
2024/02/06 04:13:32;;;;;;;1.90;1.67;;;;;;;;;;5098229;28;20261;-79
2024/02/06 04:15:59;;;;;;;2.83;1.67;;;;;;;;;;5098991;28;20208;-78
2024/02/06 04:18:27;;;;;;;2.95;1.75;;;;;;;;;;5098786;28;20227;-78
2024/02/06 04:20:54;;;;;;;2.88;1.85;;;;;;;;;;5088914;28;20215;-78
2024/02/06 04:23:23;;;;;;;1.92;1.27;;;;;;;;;;5086326;28;20575;-78
2024/02/06 04:25:51;;;;;;;1.25;1.15;;;;;;;;;;5095293;28;20210;-77
2024/02/06 04:28:19;;;;;;;3.17;1.42;;;;;;;;;;5090256;28;20232;-78
2024/02/06 04:30:46;;;;;;;3.25;1.60;;;;;;;;;;5098404;28;20644;-78
2024/02/06 04:33:14;;;;;;;2.22;1.33;;;;;;;;;;5089927;28;20208;-78
2024/02/06 04:35:41;;;;;;;4.75;1.90;;;;;;;;;;5089962;28;20253;-77
2024/02/06 04:38:09;;;;;;;3.20;1.55;;;;;;;;;;5085783;28;20217;-79
2024/02/06 04:40:38;;;;;;;2.10;1.05;;;;;;;;;;5085266;28;20663;-77
2024/02/06 04:43:06;;;;;;;3.03;1.50;;;;;;;;;;5086333;28;20209;-78
2024/02/06 04:45:33;;;;;;;2.22;1.55;;;;;;;;;;5084650;28;20204;-78
2024/02/06 04:48:01;;;;;;;8.48;2.72;;;;;;;;;;5095944;28;20220;-79
2024/02/06 04:50:28;;;;;;;3.20;2.42;;;;;;;;;;5083515;28;20673;-78
2024/02/06 04:53:03;;;;;;;3.22;2.10;;;;;;;;;;5087659;28;20295;-78
2024/02/06 04:55:31;;;;;;;4.78;2.10;;;;;;;;;;5086473;28;20652;-79
2024/02/06 04:58:00;;;;;;;5.45;1.80;;;;;;;;;;5086012;28;20224;-79
2024/02/06 05:00:28;;;;;;;3.22;1.77;;;;;;;;;;5083755;28;20200;-78
2024/02/06 05:02:55;;;;;;;3.60;1.88;;;;;;;;;;5080825;28;20197;-77
2024/02/06 05:05:23;;;;;;;6.22;3.45;;;;;;;;;;5084126;28;20710;-79
2024/02/06 05:07:50;;;;;;;1.40;1.30;;;;;;;;;;5077659;28;20231;-79
2024/02/06 05:10:18;;;;;;;2.38;1.70;;;;;;;;;;5097841;28;20292;-78
2024/02/06 05:12:45;;;;;;;1.25;1.17;;;;;;;;;;5096917;28;20231;-78
2024/02/06 05:15:14;;;;;;;1.70;1.38;;;;;;;;;;5097680;28;20213;-79
2024/02/06 05:17:42;;;;;;;2.88;1.40;;;;;;;;;;5097842;28;20224;-78
2024/02/06 05:20:10;;;;;;;2.15;1.73;;;;;;;;;;5097886;28;20204;-79
2024/02/06 05:22:38;;;;;;;1.65;1.10;;;;;;;;;;5096894;28;20593;-78
2024/02/06 05:25:06;;;;;;;4.50;1.65;;;;;;;;;;5097696;28;20208;-77
2024/02/06 05:27:34;;;;;;;2.60;1.17;;;;;;;;;;5097347;28;20270;-78
2024/02/06 05:30:05;;;;;;;1.38;1.27;;;;;;;;;;5096905;28;20324;-77
2024/02/06 05:32:35;;;;;;;4.93;2.00;;;;;;;;;;5097210;28;20206;-78
2024/02/06 05:35:03;;;;;;;2.53;1.58;;;;;;;;;;5097122;28;20291;-79
2024/02/06 05:37:31;;;;;;;3.03;1.92;;;;;;;;;;5096447;28;20597;-78
2024/02/06 05:39:58;;;;;;;2.10;1.30;;;;;;;;;;5096076;28;20725;-78
2024/02/06 05:42:25;;;;;;;1.58;1.48;;;;;;;;;;5095549;28;20200;-77
2024/02/06 05:44:53;;;;;;;1.20;1.02;;;;;;;;;;5095745;28;20654;-79
2024/02/06 05:47:20;;;;;;;3.47;1.40;;;;;;;;;;5097725;28;20675;-78
2024/02/06 05:49:50;;;;;;;2.42;1.30;;;;;;;;;;5096149;28;20228;-78
2024/02/06 05:52:17;;;;;;;1.27;1.17;;;;;;;;;;5095522;28;20247;-78
2024/02/06 05:54:44;;;;;;;2.35;1.85;;;;;;;;;;5096519;28;20651;-79
2024/02/06 05:57:12;;;;;;;2.80;1.20;;;;;;;;;;5096908;28;20235;-78
2024/02/06 05:59:40;;;;;;;2.03;1.40;;;;;;;;;;5096357;28;20205;-77
2024/02/06 06:02:08;;;;;;;4.63;1.35;;;;;;;;;;5097145;28;20238;-78
2024/02/06 06:04:35;;;;;;;2.00;1.27;;;;;;;;;;5095781;28;20212;-78
2024/02/06 06:07:04;;;;;;;2.92;1.25;;;;;;;;;;5096750;28;20224;-78
2024/02/06 06:09:32;;;;;;;2.22;1.35;;;;;;;;;;5096658;28;20235;-78
2024/02/06 06:11:59;;;;;;;3.72;2.15;;;;;;;;;;5096136;28;20204;-79
2024/02/06 06:14:27;;;;;;;2.30;1.42;;;;;;;;;;5096066;28;20204;-78
2024/02/06 06:16:54;;;;;;;2.15;1.23;;;;;;;;;;5096603;28;20312;-78
2024/02/06 06:19:21;;;;;;;2.30;1.33;;;;;;;;;;5096464;28;20199;-78
2024/02/06 06:21:49;;;;;;;2.97;1.42;;;;;;;;;;5088045;28;20647;-79
2024/02/06 06:24:18;;;;;;;7.07;2.22;;;;;;;;;;5096108;28;20204;-79
2024/02/06 06:26:45;;;;;;;2.70;1.45;;;;;;;;;;5096270;28;20224;-78
2024/02/06 06:29:13;;;;;;;1.48;1.20;;;;;;;;;;5095371;28;20230;-79
2024/02/06 06:31:40;;;;;;;1.25;1.15;;;;;;;;;;5095178;28;20230;-79
2024/02/06 06:34:08;;;;;;;2.08;1.27;;;;;;;;;;5095786;28;20216;-79
2024/02/06 06:36:35;;;;;;;1.73;1.63;;;;;;;;;;5095385;28;20295;-79
2024/02/06 06:39:03;;;;;;;2.13;1.38;;;;;;;;;;5095599;28;20207;-79
2024/02/06 06:41:31;;;;;;;4.05;1.30;;;;;;;;;;5096378;28;20281;-77
2024/02/06 06:43:59;;;;;;;1.60;1.05;;;;;;;;;;5096062;28;20218;-78
2024/02/06 06:46:26;;;;;;;2.28;1.20;;;;;;;;;;5095276;28;20212;-75
2024/02/06 06:48:54;;;;;;;2.58;1.33;;;;;;;;;;5095532;28;20224;-79
2024/02/06 06:51:22;;;;;;;1.83;1.10;;;;;;;;;;5095944;28;20211;-78
2024/02/06 06:53:49;;;;;;;1.77;1.23;;;;;;;;;;5095063;28;20249;-77
2024/02/06 06:56:17;;;;;;;2.17;1.30;;;;;;;;;;5094366;28;20204;-77
2024/02/06 06:58:47;;;;;;;1.30;1.20;;;;;;;;;;5095327;28;20208;-78
2024/02/06 07:01:14;;;;;;;1.77;1.20;;;;;;;;;;5093524;28;20240;-78
2024/02/06 07:03:42;;;;;;;1.23;1.13;;;;;;;;;;5093628;28;20204;-78
2024/02/06 07:06:09;;;;;;;1.83;1.10;;;;;;;;;;5094861;28;20211;-79
2024/02/06 07:08:38;;;;;;;1.48;1.10;;;;;;;;;;5094109;28;20234;-78
2024/02/06 07:11:06;;;;;;;1.65;0.98;;;;;;;;;;5095279;28;20258;-78
2024/02/06 07:13:33;;;;;;;1.30;1.20;;;;;;;;;;5094853;28;20266;-78
2024/02/06 07:16:03;;;;;;;2.90;1.30;;;;;;;;;;5095245;28;20214;-77
2024/02/06 07:18:30;;;;;;;2.15;1.95;;;;;;;;;;5095230;28;20679;-79
2024/02/06 07:20:57;;;;;;;3.70;2.00;;;;;;;;;;5095464;28;20211;-78
2024/02/06 07:23:25;;;;;;;1.52;1.30;;;;;;;;;;5089324;28;20197;-78
2024/02/06 07:25:52;;;;;;;1.63;1.40;;;;;;;;;;5091813;28;20698;-79
2024/02/06 07:28:20;;;;;;;1.15;1.05;;;;;;;;;;5095496;28;20228;-78
2024/02/06 07:30:47;;;;;;;2.90;1.27;;;;;;;;;;5095849;28;20220;-79
2024/02/06 07:33:16;;;;;;;2.05;1.70;;;;;;;;;;5094811;28;20204;-80
2024/02/06 07:35:43;;;;;;;1.85;1.45;;;;;;;;;;5095002;28;20219;-79
2024/02/06 07:38:11;;;;;;;1.50;1.40;;;;;;;;;;5095151;28;20219;-78
2024/02/06 07:40:39;;;;;;;1.00;0.95;;;;;;;;;;5094883;28;20203;-80
2024/02/06 07:43:06;;;;;;;3.20;1.40;;;;;;;;;;5094682;28;20210;-79
2024/02/06 07:45:33;;;;;;;1.27;1.17;;;;;;;;;;5095583;28;20196;-78
2024/02/06 07:48:01;;;;;;;2.95;1.30;;;;;;;;;;5109024;22;20222;-89
2024/02/06 07:50:30;;;;;;;1.40;1.30;;;;;;;;;;5091349;28;20323;-90
2024/02/06 07:52:57;;;;;;;1.00;1.00;;;;;;;;;;5091414;28;20227;-89
2024/02/06 07:55:25;;;;;;;1.27;1.00;;;;;;;;;;5088435;28;20558;-90
2024/02/06 07:57:52;;;;;;;1.60;1.50;;;;;;;;;;5087275;28;20295;-89
2024/02/06 08:00:21;;;;;;;1.45;1.20;;;;;;;;;;5080825;28;20207;-90
2024/02/06 08:02:48;;;;;;;1.55;1.45;;;;;;;;;;5086515;28;20645;-89
2024/02/06 08:05:17;;;;;;;2.10;1.20;;;;;;;;;;5081426;28;20713;-90
2024/02/06 08:07:46;;;;;;;2.22;1.65;;;;;;;;;;5085986;28;20215;-90
2024/02/06 08:10:14;;;;;;;2.88;1.70;;;;;;;;;;5083414;28;20234;-90
2024/02/06 08:12:41;;;;;;;2.47;1.55;;;;;;;;;;5083845;28;20258;-90
2024/02/06 08:15:10;;;;;;;2.63;1.55;;;;;;;;;;5082516;28;20224;-90
2024/02/06 08:17:40;;;;;;;2.13;1.73;;;;;;;;;;5089163;28;20200;-90
2024/02/06 08:20:09;;;;;;;2.65;1.40;;;;;;;;;;5086863;28;20277;-89
2024/02/06 08:22:36;;;;;;;1.95;1.17;;;;;;;;;;5088715;28;20206;-89
2024/02/06 08:25:07;;;;;;;2.03;1.50;;;;;;;;;;5086881;28;20200;-89
2024/02/06 08:27:35;;;;;;;5.72;2.90;;;;;;;;;;5088535;28;20195;-90
2024/02/06 08:30:03;;;;;;;1.23;1.08;;;;;;;;;;5086787;28;20254;-90
2024/02/06 08:32:31;;;;;;;1.77;1.52;;;;;;;;;;5087327;28;20207;-90
2024/02/06 08:34:59;;;;;;;2.55;1.92;;;;;;;;;;5087117;28;20283;-89
2024/02/06 08:37:26;;;;;;;3.75;1.25;;;;;;;;;;5083624;28;20208;-90
2024/02/06 08:39:54;;;;;;;1.45;1.35;;;;;;;;;;5083502;28;20251;-90
2024/02/06 08:42:23;;;;;;;1.50;1.33;;;;;;;;;;5085881;28;20204;-90
2024/02/06 08:44:50;;;;;;;1.65;1.40;;;;;;;;;;5086545;28;20657;-90
2024/02/06 08:47:18;;;;;;;2.30;1.95;;;;;;;;;;5086495;28;20291;-90
2024/02/06 08:49:46;;;;;;;1.45;1.17;;;;;;;;;;5088987;28;20609;-90
2024/02/06 08:52:14;;;;;;;1.92;1.42;;;;;;;;;;5091213;28;20193;-90
2024/02/06 08:54:42;;;;;;;1.90;1.23;;;;;;;;;;5088636;28;20303;-89
2024/02/06 08:57:09;;;;;;;2.17;1.20;;;;;;;;;;5089475;28;20255;-90
2024/02/06 08:59:38;;;;;;;1.58;1.10;;;;;;;;;;5086851;28;20199;-90
2024/02/06 09:02:06;;;;;;;1.15;1.05;;;;;;;;;;5085450;28;20291;-88
2024/02/06 09:04:34;;;;;;;2.42;1.80;;;;;;;;;;5078628;28;20302;-89
2024/02/06 09:07:02;;;;;;;1.33;1.23;;;;;;;;;;5086105;28;20201;-89
2024/02/06 09:09:30;;;;;;;1.90;1.50;;;;;;;;;;5087241;28;20273;-90
2024/02/06 09:11:57;;;;;;;0.95;0.93;;;;;;;;;;5094824;28;20319;-89
2024/02/06 09:14:25;;;;;;;1.20;1.08;;;;;;;;;;5089143;28;20220;-91
2024/02/06 09:16:54;;;;;;;3.38;1.75;;;;;;;;;;5086117;28;20204;-91
2024/02/06 09:19:21;;;;;;;25.35;6.82;;;;;;;;;;5083148;28;20205;-91
2024/02/06 09:21:49;;;;;;;21.15;5.13;;;;;;;;;;5089688;28;20210;-91
2024/02/06 09:24:16;;;;;;;346.17;70.07;;;;;;;;;;5085589;28;20371;-91
2024/02/06 09:26:44;;;;;;;46.67;12.50;;;;;;;;;;5085319;28;20288;-91
2024/02/06 09:29:13;;;;;;;12.80;5.63;;;;;;;;;;5085122;28;20288;-91
2024/02/06 09:31:41;;;;;;;56.53;14.20;;;;;;;;;;5093960;28;20235;-91
2024/02/06 09:34:10;;;;;;;15.75;5.53;;;;;;;;;;5084847;28;20757;-91
2024/02/06 09:36:38;;;;;;;7.10;2.63;;;;;;;;;;5082879;28;20224;-90
2024/02/06 09:39:07;;;;;;;13.32;3.50;;;;;;;;;;5090700;28;20211;-91
2024/02/06 09:41:35;;;;;;;23.75;5.28;;;;;;;;;;5087437;28;20292;-90
2024/02/06 09:44:02;;;;;;;13.15;3.80;;;;;;;;;;5085350;28;20243;-91
2024/02/06 09:46:30;;;;;;;15.20;6.32;;;;;;;;;;5086682;28;20303;-91
2024/02/06 09:48:58;;;;;;;45.05;10.35;;;;;;;;;;5087636;28;20204;-92
2024/02/06 09:51:27;;;;;;;9.73;4.28;;;;;;;;;;5086541;28;20319;-89
2024/02/06 09:53:59;;;;;;;5.95;2.55;;;;;;;;;;5085733;28;20229;-90
2024/02/06 09:56:28;;;;;;;11.82;3.10;;;;;;;;;;5081629;28;20284;-90
2024/02/06 09:58:57;;;;;;;17.75;4.90;;;;;;;;;;5082074;28;20224;-90
2024/02/06 10:01:25;;;;;;;19.10;5.63;;;;;;;;;;5085978;28;20246;-90
2024/02/06 10:03:53;;;;;;;7.32;2.63;;;;;;;;;;5085635;28;20220;-89
2024/02/06 10:06:23;;;;;;;5.07;1.88;;;;;;;;;;5082700;28;20197;-89
2024/02/06 10:08:52;;;;;;;5.45;2.28;;;;;;;;;;5088659;28;20218;-89
2024/02/06 10:11:20;;;;;;;8.23;4.00;;;;;;;;;;5085043;28;20756;-89
2024/02/06 10:13:48;;;;;;;3.25;1.80;;;;;;;;;;5084376;28;20739;-89
2024/02/06 10:16:15;;;;;;;7.03;4.05;;;;;;;;;;5091363;28;20283;-89
2024/02/06 10:18:53;;;;;;;7.82;2.22;;;;;;;;;;5087218;28;20581;-90
2024/02/06 10:21:21;;;;;;;2.67;1.60;;;;;;;;;;5084690;28;20257;-89
2024/02/06 10:23:49;;;;;;;2.20;1.33;;;;;;;;;;5084276;28;20600;-89
2024/02/06 10:26:20;;;;;;;2.83;1.38;;;;;;;;;;5085101;28;20200;-89
2024/02/06 10:28:47;;;;;;;16.75;3.95;;;;;;;;;;5095293;28;20208;-91
2024/02/06 10:31:15;;;;;;;22.05;5.40;;;;;;;;;;5109360;28;20205;-91
2024/02/06 10:33:44;;;;;;;8.57;3.35;;;;;;;;;;5109769;28;20228;-92
2024/02/06 10:36:12;;;;;;;5.97;2.33;;;;;;;;;;5110118;28;20226;-89
2024/02/06 10:38:39;;;;;;;4.68;1.60;;;;;;;;;;5100132;28;20662;-91
2024/02/06 10:41:09;;;;;;;1.77;1.20;;;;;;;;;;5092384;28;20279;-89
2024/02/06 10:43:38;;;;;;;2.50;1.27;;;;;;;;;;5087053;28;20247;-90
2024/02/06 10:46:06;;;;;;;1.85;1.25;;;;;;;;;;5085822;28;20225;-89
2024/02/06 10:48:33;;;;;;;2.92;1.50;;;;;;;;;;5085011;28;20295;-89
2024/02/06 10:51:04;;;;;;;2.00;1.30;;;;;;;;;;5084688;28;20201;-90
2024/02/06 10:53:32;;;;;;;2.90;1.25;;;;;;;;;;5081091;28;20213;-90
2024/02/06 10:56:05;;;;;;;2.10;1.45;;;;;;;;;;5089005;28;20211;-90
2024/02/06 10:58:39;;;;;;;2.30;1.30;;;;;;;;;;5081131;28;20227;-90
2024/02/06 11:01:08;;;;;;;2.40;1.02;;;;;;;;;;5082173;28;20570;-90
2024/02/06 11:03:43;;;;;;;3.63;1.33;;;;;;;;;;5084037;28;20728;-89
2024/02/06 11:06:18;;;;;;;0.98;0.90;;;;;;;;;;5091634;28;20199;-90
2024/02/06 11:08:47;;;;;;;4.82;1.40;;;;;;;;;;5083824;28;20589;-90
2024/02/06 11:11:14;;;;;;;2.13;1.93;;;;;;;;;;5082697;28;20585;-90
2024/02/06 11:13:46;;;;;;;1.95;1.40;;;;;;;;;;5092015;28;20249;-90
2024/02/06 11:16:17;;;;;;;1.98;1.30;;;;;;;;;;5082752;28;20246;-91
2024/02/06 11:19:03;;;;;;;1.65;1.55;;;;;;;;;;5081871;28;20643;-90
2024/02/06 11:21:36;;;;;;;2.30;1.52;;;;;;;;;;5086237;28;20291;-90
2024/02/06 11:24:05;;;;;;;3.15;1.58;;;;;;;;;;5085235;28;20316;-89
2024/02/06 11:26:33;;;;;;;2.92;1.98;;;;;;;;;;5088309;28;20205;-89
2024/02/06 11:29:06;;;;;;;1.98;1.20;;;;;;;;;;5090970;28;20200;-89
2024/02/06 11:31:35;;;;;;;2.17;1.60;;;;;;;;;;5081500;28;20208;-89
2024/02/06 11:34:13;;;;;;;2.17;1.10;;;;;;;;;;5089442;28;20303;-89
2024/02/06 11:36:41;;;;;;;0.93;0.93;;;;;;;;;;5082365;28;20208;-90
2024/02/06 11:39:09;;;;;;;1.35;1.15;;;;;;;;;;5088977;28;20188;-90
2024/02/06 11:41:37;;;;;;;1.48;1.20;;;;;;;;;;5085480;28;20288;-89
2024/02/06 11:44:11;;;;;;;0.73;0.73;;;;;;;;;;5083496;28;20317;-90
2024/02/06 11:46:44;;;;;;;1.40;1.30;;;;;;;;;;5083854;28;20219;-90
2024/02/06 11:49:12;;;;;;;1.50;1.00;;;;;;;;;;5084094;28;20688;-89
2024/02/06 11:51:40;;;;;;;1.70;1.02;;;;;;;;;;5085761;28;20212;-90
2024/02/06 11:54:12;;;;;;;1.38;0.77;;;;;;;;;;5085945;28;20216;-89
2024/02/06 11:56:41;;;;;;;1.60;1.30;;;;;;;;;;5084241;28;20383;-89
2024/02/06 11:59:11;;;;;;;5.65;1.20;;;;;;;;;;5084003;28;20231;-90
2024/02/06 12:01:39;;;;;;;2.10;1.00;;;;;;;;;;5084047;28;20432;-90
2024/02/06 12:04:06;;;;;;;1.02;0.90;;;;;;;;;;5084137;28;20229;-90
2024/02/06 12:06:34;;;;;;;0.98;0.98;;;;;;;;;;5087285;28;20202;-90
2024/02/06 12:09:03;;;;;;;0.70;0.70;;;;;;;;;;5090301;28;20204;-90
2024/02/06 12:11:33;;;;;;;1.00;1.00;;;;;;;;;;5096174;28;20212;-89
2024/02/06 12:14:00;;;;;;;1.33;0.85;;;;;;;;;;5087413;28;20311;-90
2024/02/06 12:16:29;;;;;;;2.70;0.93;;;;;;;;;;5096495;28;20208;-89
2024/02/06 12:18:58;;;;;;;2.05;1.05;;;;;;;;;;5079721;28;20292;-90
2024/02/06 12:21:26;;;;;;;0.93;0.93;;;;;;;;;;5092166;28;20288;-89
2024/02/06 12:24:04;;;;;;;0.70;0.70;;;;;;;;;;5090834;28;20227;-89
2024/02/06 12:26:32;;;;;;;1.50;0.82;;;;;;;;;;5084041;28;20268;-90
2024/02/06 12:29:05;;;;;;;1.20;1.10;;;;;;;;;;5084081;28;20706;-89
2024/02/06 12:31:36;;;;;;;0.98;0.98;;;;;;;;;;5083883;28;20204;-89
2024/02/06 12:34:06;;;;;;;1.10;1.00;;;;;;;;;;5092287;28;20228;-90
2024/02/06 12:36:35;;;;;;;1.75;0.80;;;;;;;;;;5087537;28;20196;-90
2024/02/06 12:39:12;;;;;;;2.20;1.40;;;;;;;;;;5095751;28;20231;-89
2024/02/06 12:41:40;;;;;;;1.67;0.90;;;;;;;;;;5095647;28;20203;-90
2024/02/06 12:44:07;;;;;;;0.90;0.90;;;;;;;;;;5086570;28;20221;-90
2024/02/06 12:46:36;;;;;;;1.15;1.00;;;;;;;;;;5094660;28;20204;-90
2024/02/06 12:49:04;;;;;;;1.40;0.80;;;;;;;;;;5086724;28;20292;-89
2024/02/06 12:51:32;;;;;;;1.25;1.15;;;;;;;;;;5095227;28;20208;-89
2024/02/06 12:53:59;;;;;;;5.50;1.63;;;;;;;;;;5094643;28;20224;-90
2024/02/06 12:56:28;;;;;;;0.70;0.70;;;;;;;;;;5086884;28;20575;-88
2024/02/06 12:58:55;;;;;;;2.53;1.02;;;;;;;;;;5086910;28;20579;-90
2024/02/06 13:01:24;;;;;;;2.95;1.60;;;;;;;;;;5086446;28;20212;-91
2024/02/06 13:03:59;;;;;;;0.90;0.90;;;;;;;;;;5087678;28;20217;-90
2024/02/06 13:06:35;;;;;;;1.27;1.17;;;;;;;;;;5086614;28;20207;-91
2024/02/06 13:09:03;;;;;;;1.15;0.90;;;;;;;;;;5087033;28;20290;-90
2024/02/06 13:11:31;;;;;;;1.00;1.00;;;;;;;;;;5089428;28;20287;-90
2024/02/06 13:14:00;;;;;;;1.15;1.05;;;;;;;;;;5085921;28;20231;-88
2024/02/06 13:16:28;;;;;;;0.80;0.80;;;;;;;;;;5082780;28;20724;-90
2024/02/06 13:19:01;;;;;;;1.10;1.10;;;;;;;;;;5090454;28;20283;-89
2024/02/06 13:21:39;;;;;;;1.58;1.48;;;;;;;;;;5087177;28;20222;-89
2024/02/06 13:24:08;;;;;;;1.55;1.27;;;;;;;;;;5085052;28;20242;-90
2024/02/06 13:26:35;;;;;;;1.25;1.10;;;;;;;;;;5087020;28;20231;-90
2024/02/06 13:29:03;;;;;;;1.73;1.10;;;;;;;;;;5085983;28;20283;-89
2024/02/06 13:31:30;;;;;;;4.50;1.17;;;;;;;;;;5085879;28;20637;-90
2024/02/06 13:33:59;;;;;;;1.13;1.02;;;;;;;;;;5085390;28;20235;-90
2024/02/06 13:36:27;;;;;;;1.83;1.52;;;;;;;;;;5082607;28;20575;-90
2024/02/06 13:38:54;;;;;;;2.33;1.23;;;;;;;;;;5089820;28;20287;-90
2024/02/06 13:41:22;;;;;;;1.88;1.25;;;;;;;;;;5086277;28;20204;-90
2024/02/06 13:43:49;;;;;;;1.42;1.00;;;;;;;;;;5085234;28;20247;-90
2024/02/06 13:46:17;;;;;;;1.00;1.00;;;;;;;;;;5085556;28;20227;-90
2024/02/06 13:48:44;;;;;;;2.05;1.27;;;;;;;;;;5094081;28;20212;-90
2024/02/06 13:51:13;;;;;;;2.67;1.40;;;;;;;;;;5092159;28;20283;-90
2024/02/06 13:53:41;;;;;;;1.40;1.30;;;;;;;;;;5086885;28;20252;-89
2024/02/06 13:56:09;;;;;;;2.10;1.27;;;;;;;;;;5084576;28;20283;-90
2024/02/06 13:58:37;;;;;;;1.25;1.20;;;;;;;;;;5081966;28;20219;-89
2024/02/06 14:01:04;;;;;;;1.30;1.20;;;;;;;;;;5081936;28;20244;-90
2024/02/06 14:03:32;;;;;;;3.88;1.50;;;;;;;;;;5085312;28;20247;-89
2024/02/06 14:06:00;;;;;;;2.28;2.08;;;;;;;;;;5085757;28;20643;-90
2024/02/06 14:08:29;;;;;;;3.33;2.30;;;;;;;;;;5081833;28;20203;-89
2024/02/06 14:10:56;;;;;;;1.70;1.40;;;;;;;;;;5089449;28;20288;-90
2024/02/06 14:13:25;;;;;;;1.83;1.50;;;;;;;;;;5083735;28;20228;-90
2024/02/06 14:15:56;;;;;;;1.80;1.70;;;;;;;;;;5093504;28;20208;-89
2024/02/06 14:18:23;;;;;;;1.70;1.55;;;;;;;;;;5085486;28;20207;-90
2024/02/06 14:20:51;;;;;;;2.35;2.05;;;;;;;;;;5084861;28;20211;-90
2024/02/06 14:23:19;;;;;;;2.30;2.10;;;;;;;;;;5085893;28;20288;-91
2024/02/06 14:25:48;;;;;;;1.33;1.23;;;;;;;;;;5093822;28;20207;-90
2024/02/06 14:28:16;;;;;;;2.50;1.58;;;;;;;;;;5087165;28;20283;-89
2024/02/06 14:30:43;;;;;;;2.13;1.70;;;;;;;;;;5087613;28;20662;-91
2024/02/06 14:33:11;;;;;;;2.67;1.92;;;;;;;;;;5086568;28;20307;-91
2024/02/06 14:35:39;;;;;;;3.05;2.17;;;;;;;;;;5093922;28;20584;-90
2024/02/06 14:38:08;;;;;;;4.40;2.47;;;;;;;;;;5084907;28;20283;-91
2024/02/06 14:40:36;;;;;;;2.83;1.73;;;;;;;;;;5086865;28;20203;-90
2024/02/06 14:43:05;;;;;;;4.20;2.00;;;;;;;;;;5084117;28;20712;-90
2024/02/06 14:45:33;;;;;;;2.13;1.55;;;;;;;;;;5085666;28;20279;-90
2024/02/06 14:48:03;;;;;;;2.92;2.05;;;;;;;;;;5084504;28;20283;-90
2024/02/06 14:50:31;;;;;;;2.03;1.75;;;;;;;;;;5076982;28;20203;-90